sensor_id;sensor_type;location;lat;lon;timestamp;P1;durP1;ratioP1;P2;durP2;ratioP2
54919;SDS011;63804;53.120;8.764;2023-04-06T00:00:25;17.48;;;10.82;;
54919;SDS011;63804;53.120;8.764;2023-04-06T00:02:51;20.60;;;11.95;;
54919;SDS011;63804;53.120;8.764;2023-04-06T00:05:17;21.13;;;13.27;;
54919;SDS011;63804;53.120;8.764;2023-04-06T00:07:45;21.30;;;11.98;;
54919;SDS011;63804;53.120;8.764;2023-04-06T00:10:10;25.02;;;14.60;;
54919;SDS011;63804;53.120;8.764;2023-04-06T00:12:36;25.38;;;16.55;;
54919;SDS011;63804;53.120;8.764;2023-04-06T00:15:08;25.10;;;15.13;;
54919;SDS011;63804;53.120;8.764;2023-04-06T00:17:34;26.08;;;16.67;;
54919;SDS011;63804;53.120;8.764;2023-04-06T00:19:59;23.65;;;15.43;;
54919;SDS011;63804;53.120;8.764;2023-04-06T00:22:25;24.80;;;16.23;;
54919;SDS011;63804;53.120;8.764;2023-04-06T00:24:51;27.17;;;17.92;;
54919;SDS011;63804;53.120;8.764;2023-04-06T00:27:16;29.67;;;19.15;;
54919;SDS011;63804;53.120;8.764;2023-04-06T00:29:43;29.13;;;19.40;;
54919;SDS011;63804;53.120;8.764;2023-04-06T00:32:09;26.48;;;17.45;;
54919;SDS011;63804;53.120;8.764;2023-04-06T00:34:34;27.95;;;16.33;;
54919;SDS011;63804;53.120;8.764;2023-04-06T00:37:00;22.13;;;14.80;;
54919;SDS011;63804;53.120;8.764;2023-04-06T00:39:25;28.27;;;14.73;;
54919;SDS011;63804;53.120;8.764;2023-04-06T00:41:51;21.65;;;14.30;;
54919;SDS011;63804;53.120;8.764;2023-04-06T00:44:18;22.35;;;13.20;;
54919;SDS011;63804;53.120;8.764;2023-04-06T00:46:45;17.42;;;12.20;;
54919;SDS011;63804;53.120;8.764;2023-04-06T00:49:10;17.73;;;11.23;;
54919;SDS011;63804;53.120;8.764;2023-04-06T00:51:36;19.20;;;12.32;;
54919;SDS011;63804;53.120;8.764;2023-04-06T00:54:02;18.80;;;12.70;;
54919;SDS011;63804;53.120;8.764;2023-04-06T00:56:28;21.80;;;12.75;;
54919;SDS011;63804;53.120;8.764;2023-04-06T00:58:55;21.45;;;13.20;;
54919;SDS011;63804;53.120;8.764;2023-04-06T01:01:20;19.95;;;12.50;;
54919;SDS011;63804;53.120;8.764;2023-04-06T01:03:46;18.30;;;12.60;;
54919;SDS011;63804;53.120;8.764;2023-04-06T01:06:15;18.98;;;12.50;;
54919;SDS011;63804;53.120;8.764;2023-04-06T01:08:41;18.17;;;11.90;;
54919;SDS011;63804;53.120;8.764;2023-04-06T01:11:07;21.15;;;13.30;;
54919;SDS011;63804;53.120;8.764;2023-04-06T01:13:32;20.20;;;12.48;;
54919;SDS011;63804;53.120;8.764;2023-04-06T01:15:58;18.40;;;12.13;;
54919;SDS011;63804;53.120;8.764;2023-04-06T01:18:27;20.30;;;12.88;;
54919;SDS011;63804;53.120;8.764;2023-04-06T01:20:53;20.10;;;12.93;;
54919;SDS011;63804;53.120;8.764;2023-04-06T01:23:19;20.15;;;13.40;;
54919;SDS011;63804;53.120;8.764;2023-04-06T01:25:44;20.17;;;12.93;;
54919;SDS011;63804;53.120;8.764;2023-04-06T01:28:10;20.75;;;13.20;;
54919;SDS011;63804;53.120;8.764;2023-04-06T01:30:36;18.98;;;12.32;;
54919;SDS011;63804;53.120;8.764;2023-04-06T01:33:01;18.67;;;12.15;;
54919;SDS011;63804;53.120;8.764;2023-04-06T01:35:27;21.30;;;12.55;;
54919;SDS011;63804;53.120;8.764;2023-04-06T01:37:53;17.92;;;11.98;;
54919;SDS011;63804;53.120;8.764;2023-04-06T01:40:21;19.08;;;11.32;;
54919;SDS011;63804;53.120;8.764;2023-04-06T01:42:47;17.65;;;10.88;;
54919;SDS011;63804;53.120;8.764;2023-04-06T01:45:12;17.38;;;10.90;;
54919;SDS011;63804;53.120;8.764;2023-04-06T01:47:38;17.02;;;10.82;;
54919;SDS011;63804;53.120;8.764;2023-04-06T01:50:04;16.55;;;10.40;;
54919;SDS011;63804;53.120;8.764;2023-04-06T01:52:32;19.98;;;12.63;;
54919;SDS011;63804;53.120;8.764;2023-04-06T01:54:58;17.88;;;11.55;;
54919;SDS011;63804;53.120;8.764;2023-04-06T01:57:24;17.65;;;10.65;;
54919;SDS011;63804;53.120;8.764;2023-04-06T01:59:50;16.45;;;10.98;;
54919;SDS011;63804;53.120;8.764;2023-04-06T02:02:16;19.23;;;12.10;;
54919;SDS011;63804;53.120;8.764;2023-04-06T02:04:42;18.15;;;10.90;;
54919;SDS011;63804;53.120;8.764;2023-04-06T02:07:08;18.67;;;11.15;;
54919;SDS011;63804;53.120;8.764;2023-04-06T02:09:37;17.02;;;10.77;;
54919;SDS011;63804;53.120;8.764;2023-04-06T02:12:02;20.48;;;12.15;;
54919;SDS011;63804;53.120;8.764;2023-04-06T02:14:28;18.88;;;11.25;;
54919;SDS011;63804;53.120;8.764;2023-04-06T02:16:54;15.57;;;10.65;;
54919;SDS011;63804;53.120;8.764;2023-04-06T02:19:20;16.67;;;10.75;;
54919;SDS011;63804;53.120;8.764;2023-04-06T02:21:46;16.65;;;11.10;;
54919;SDS011;63804;53.120;8.764;2023-04-06T02:24:11;14.45;;;9.95;;
54919;SDS011;63804;53.120;8.764;2023-04-06T02:26:37;16.13;;;11.02;;
54919;SDS011;63804;53.120;8.764;2023-04-06T02:29:06;17.33;;;10.05;;
54919;SDS011;63804;53.120;8.764;2023-04-06T02:31:32;16.83;;;10.43;;
54919;SDS011;63804;53.120;8.764;2023-04-06T02:33:57;18.17;;;10.85;;
54919;SDS011;63804;53.120;8.764;2023-04-06T02:36:23;15.98;;;9.80;;
54919;SDS011;63804;53.120;8.764;2023-04-06T02:38:49;16.55;;;10.60;;
54919;SDS011;63804;53.120;8.764;2023-04-06T02:41:15;14.15;;;9.57;;
54919;SDS011;63804;53.120;8.764;2023-04-06T02:43:41;15.95;;;10.65;;
54919;SDS011;63804;53.120;8.764;2023-04-06T02:46:06;18.20;;;11.60;;
54919;SDS011;63804;53.120;8.764;2023-04-06T02:48:32;20.02;;;11.93;;
54919;SDS011;63804;53.120;8.764;2023-04-06T02:51:03;15.52;;;10.73;;
54919;SDS011;63804;53.120;8.764;2023-04-06T02:53:29;17.20;;;10.23;;
54919;SDS011;63804;53.120;8.764;2023-04-06T02:55:54;16.52;;;10.60;;
54919;SDS011;63804;53.120;8.764;2023-04-06T02:58:21;15.73;;;10.57;;
54919;SDS011;63804;53.120;8.764;2023-04-06T03:00:46;16.52;;;10.82;;
54919;SDS011;63804;53.120;8.764;2023-04-06T03:03:12;15.90;;;11.02;;
54919;SDS011;63804;53.120;8.764;2023-04-06T03:05:37;15.90;;;10.20;;
54919;SDS011;63804;53.120;8.764;2023-04-06T03:08:03;15.95;;;10.10;;
54919;SDS011;63804;53.120;8.764;2023-04-06T03:10:29;17.00;;;10.43;;
54919;SDS011;63804;53.120;8.764;2023-04-06T03:12:55;16.90;;;10.93;;
54919;SDS011;63804;53.120;8.764;2023-04-06T03:15:20;16.63;;;9.95;;
54919;SDS011;63804;53.120;8.764;2023-04-06T03:17:46;15.73;;;10.13;;
54919;SDS011;63804;53.120;8.764;2023-04-06T03:20:12;17.25;;;10.18;;
54919;SDS011;63804;53.120;8.764;2023-04-06T03:22:37;15.52;;;10.27;;
54919;SDS011;63804;53.120;8.764;2023-04-06T03:25:03;16.02;;;9.50;;
54919;SDS011;63804;53.120;8.764;2023-04-06T03:27:29;16.33;;;9.68;;
54919;SDS011;63804;53.120;8.764;2023-04-06T03:29:55;15.25;;;9.43;;
54919;SDS011;63804;53.120;8.764;2023-04-06T03:32:21;14.88;;;9.15;;
54919;SDS011;63804;53.120;8.764;2023-04-06T03:34:46;13.70;;;8.77;;
54919;SDS011;63804;53.120;8.764;2023-04-06T03:37:18;14.25;;;8.55;;
54919;SDS011;63804;53.120;8.764;2023-04-06T03:39:43;13.68;;;8.60;;
54919;SDS011;63804;53.120;8.764;2023-04-06T03:42:09;14.05;;;7.97;;
54919;SDS011;63804;53.120;8.764;2023-04-06T03:44:34;13.93;;;7.85;;
54919;SDS011;63804;53.120;8.764;2023-04-06T03:47:00;12.80;;;8.38;;
54919;SDS011;63804;53.120;8.764;2023-04-06T03:49:27;17.55;;;8.82;;
54919;SDS011;63804;53.120;8.764;2023-04-06T03:51:53;14.38;;;8.85;;
54919;SDS011;63804;53.120;8.764;2023-04-06T03:54:19;14.38;;;8.30;;
54919;SDS011;63804;53.120;8.764;2023-04-06T03:56:44;15.18;;;8.20;;
54919;SDS011;63804;53.120;8.764;2023-04-06T03:59:10;15.20;;;8.07;;
54919;SDS011;63804;53.120;8.764;2023-04-06T04:01:36;14.15;;;9.32;;
54919;SDS011;63804;53.120;8.764;2023-04-06T04:04:01;13.85;;;9.30;;
54919;SDS011;63804;53.120;8.764;2023-04-06T04:06:30;13.95;;;9.18;;
54919;SDS011;63804;53.120;8.764;2023-04-06T04:08:56;14.60;;;9.52;;
54919;SDS011;63804;53.120;8.764;2023-04-06T04:11:22;15.55;;;9.63;;
54919;SDS011;63804;53.120;8.764;2023-04-06T04:13:47;13.90;;;9.52;;
54919;SDS011;63804;53.120;8.764;2023-04-06T04:16:13;15.13;;;9.75;;
54919;SDS011;63804;53.120;8.764;2023-04-06T04:18:38;14.73;;;9.38;;
54919;SDS011;63804;53.120;8.764;2023-04-06T04:21:04;15.80;;;9.88;;
54919;SDS011;63804;53.120;8.764;2023-04-06T04:23:29;14.32;;;9.10;;
54919;SDS011;63804;53.120;8.764;2023-04-06T04:25:55;15.40;;;9.63;;
54919;SDS011;63804;53.120;8.764;2023-04-06T04:28:20;14.50;;;8.88;;
54919;SDS011;63804;53.120;8.764;2023-04-06T04:30:46;15.80;;;9.40;;
54919;SDS011;63804;53.120;8.764;2023-04-06T04:33:12;14.50;;;9.40;;
54919;SDS011;63804;53.120;8.764;2023-04-06T04:35:37;15.57;;;9.52;;
54919;SDS011;63804;53.120;8.764;2023-04-06T04:38:03;15.93;;;9.77;;
54919;SDS011;63804;53.120;8.764;2023-04-06T04:40:29;16.58;;;9.77;;
54919;SDS011;63804;53.120;8.764;2023-04-06T04:42:55;16.38;;;10.30;;
54919;SDS011;63804;53.120;8.764;2023-04-06T04:45:20;14.70;;;9.30;;
54919;SDS011;63804;53.120;8.764;2023-04-06T04:47:46;16.35;;;10.70;;
54919;SDS011;63804;53.120;8.764;2023-04-06T04:50:12;16.75;;;9.90;;
54919;SDS011;63804;53.120;8.764;2023-04-06T04:52:37;16.25;;;11.23;;
54919;SDS011;63804;53.120;8.764;2023-04-06T04:55:03;16.27;;;11.15;;
54919;SDS011;63804;53.120;8.764;2023-04-06T04:57:32;15.43;;;10.40;;
54919;SDS011;63804;53.120;8.764;2023-04-06T04:59:58;15.27;;;10.38;;
54919;SDS011;63804;53.120;8.764;2023-04-06T05:02:23;15.75;;;11.05;;
54919;SDS011;63804;53.120;8.764;2023-04-06T05:04:49;17.85;;;11.18;;
54919;SDS011;63804;53.120;8.764;2023-04-06T05:07:14;16.55;;;10.90;;
54919;SDS011;63804;53.120;8.764;2023-04-06T05:09:40;16.20;;;10.82;;
54919;SDS011;63804;53.120;8.764;2023-04-06T05:12:06;16.15;;;10.10;;
54919;SDS011;63804;53.120;8.764;2023-04-06T05:14:32;14.98;;;9.35;;
54919;SDS011;63804;53.120;8.764;2023-04-06T05:17:04;15.77;;;10.82;;
54919;SDS011;63804;53.120;8.764;2023-04-06T05:19:30;15.57;;;9.98;;
54919;SDS011;63804;53.120;8.764;2023-04-06T05:21:56;15.45;;;10.48;;
54919;SDS011;63804;53.120;8.764;2023-04-06T05:24:21;17.38;;;10.02;;
54919;SDS011;63804;53.120;8.764;2023-04-06T05:26:47;16.77;;;10.85;;
54919;SDS011;63804;53.120;8.764;2023-04-06T05:29:14;16.33;;;11.00;;
54919;SDS011;63804;53.120;8.764;2023-04-06T05:31:40;17.85;;;11.25;;
54919;SDS011;63804;53.120;8.764;2023-04-06T05:34:05;17.58;;;11.48;;
54919;SDS011;63804;53.120;8.764;2023-04-06T05:36:31;15.82;;;11.27;;
54919;SDS011;63804;53.120;8.764;2023-04-06T05:38:57;17.92;;;11.63;;
54919;SDS011;63804;53.120;8.764;2023-04-06T05:41:23;17.95;;;11.38;;
54919;SDS011;63804;53.120;8.764;2023-04-06T05:43:49;16.98;;;11.98;;
54919;SDS011;63804;53.120;8.764;2023-04-06T05:46:15;19.83;;;11.95;;
54919;SDS011;63804;53.120;8.764;2023-04-06T05:48:41;18.67;;;12.38;;
54919;SDS011;63804;53.120;8.764;2023-04-06T05:51:06;18.95;;;12.80;;
54919;SDS011;63804;53.120;8.764;2023-04-06T05:53:33;19.70;;;12.20;;
54919;SDS011;63804;53.120;8.764;2023-04-06T05:56:01;20.08;;;12.27;;
54919;SDS011;63804;53.120;8.764;2023-04-06T05:58:28;18.15;;;11.48;;
54919;SDS011;63804;53.120;8.764;2023-04-06T06:01:00;16.90;;;11.20;;
54919;SDS011;63804;53.120;8.764;2023-04-06T06:03:26;20.15;;;12.10;;
54919;SDS011;63804;53.120;8.764;2023-04-06T06:05:51;19.88;;;12.95;;
54919;SDS011;63804;53.120;8.764;2023-04-06T06:08:17;17.75;;;12.35;;
54919;SDS011;63804;53.120;8.764;2023-04-06T06:10:43;19.10;;;12.35;;
54919;SDS011;63804;53.120;8.764;2023-04-06T06:13:09;19.63;;;12.82;;
54919;SDS011;63804;53.120;8.764;2023-04-06T06:15:37;20.17;;;12.00;;
54919;SDS011;63804;53.120;8.764;2023-04-06T06:18:06;19.77;;;12.57;;
54919;SDS011;63804;53.120;8.764;2023-04-06T06:20:31;22.55;;;12.73;;
54919;SDS011;63804;53.120;8.764;2023-04-06T06:22:57;19.55;;;12.15;;
54919;SDS011;63804;53.120;8.764;2023-04-06T06:25:23;18.50;;;12.18;;
54919;SDS011;63804;53.120;8.764;2023-04-06T06:27:49;17.42;;;10.82;;
54919;SDS011;63804;53.120;8.764;2023-04-06T06:30:15;18.05;;;11.63;;
54919;SDS011;63804;53.120;8.764;2023-04-06T06:32:41;18.73;;;11.68;;
54919;SDS011;63804;53.120;8.764;2023-04-06T06:35:06;20.88;;;11.82;;
54919;SDS011;63804;53.120;8.764;2023-04-06T06:37:32;19.40;;;12.13;;
54919;SDS011;63804;53.120;8.764;2023-04-06T06:39:58;18.92;;;12.38;;
54919;SDS011;63804;53.120;8.764;2023-04-06T06:42:24;17.70;;;11.27;;
54919;SDS011;63804;53.120;8.764;2023-04-06T06:44:49;20.90;;;12.55;;
54919;SDS011;63804;53.120;8.764;2023-04-06T06:47:16;19.60;;;12.43;;
54919;SDS011;63804;53.120;8.764;2023-04-06T06:49:41;18.05;;;12.77;;
54919;SDS011;63804;53.120;8.764;2023-04-06T06:52:07;16.50;;;11.48;;
54919;SDS011;63804;53.120;8.764;2023-04-06T06:54:32;18.23;;;12.13;;
54919;SDS011;63804;53.120;8.764;2023-04-06T06:57:01;16.50;;;10.52;;
54919;SDS011;63804;53.120;8.764;2023-04-06T06:59:26;16.50;;;10.88;;
54919;SDS011;63804;53.120;8.764;2023-04-06T07:01:52;17.45;;;12.07;;
54919;SDS011;63804;53.120;8.764;2023-04-06T07:04:17;17.20;;;10.35;;
54919;SDS011;63804;53.120;8.764;2023-04-06T07:06:43;16.52;;;10.35;;
54919;SDS011;63804;53.120;8.764;2023-04-06T07:09:09;17.25;;;9.73;;
54919;SDS011;63804;53.120;8.764;2023-04-06T07:11:34;16.65;;;9.38;;
54919;SDS011;63804;53.120;8.764;2023-04-06T07:14:00;16.42;;;9.55;;
54919;SDS011;63804;53.120;8.764;2023-04-06T07:16:25;15.73;;;9.45;;
54919;SDS011;63804;53.120;8.764;2023-04-06T07:18:51;17.65;;;9.23;;
54919;SDS011;63804;53.120;8.764;2023-04-06T07:21:17;14.73;;;8.85;;
54919;SDS011;63804;53.120;8.764;2023-04-06T07:23:42;19.52;;;8.73;;
54919;SDS011;63804;53.120;8.764;2023-04-06T07:26:08;17.02;;;8.52;;
54919;SDS011;63804;53.120;8.764;2023-04-06T07:28:37;14.57;;;8.18;;
54919;SDS011;63804;53.120;8.764;2023-04-06T07:31:02;14.00;;;7.60;;
54919;SDS011;63804;53.120;8.764;2023-04-06T07:33:30;13.05;;;7.55;;
54919;SDS011;63804;53.120;8.764;2023-04-06T07:35:56;13.13;;;7.65;;
54919;SDS011;63804;53.120;8.764;2023-04-06T07:38:23;18.02;;;11.00;;
54919;SDS011;63804;53.120;8.764;2023-04-06T07:40:49;13.25;;;7.65;;
54919;SDS011;63804;53.120;8.764;2023-04-06T07:43:15;13.18;;;7.80;;
54919;SDS011;63804;53.120;8.764;2023-04-06T07:45:41;19.27;;;12.10;;
54919;SDS011;63804;53.120;8.764;2023-04-06T07:48:07;16.45;;;10.10;;
54919;SDS011;63804;53.120;8.764;2023-04-06T07:50:32;14.30;;;8.05;;
54919;SDS011;63804;53.120;8.764;2023-04-06T07:52:58;13.50;;;7.40;;
54919;SDS011;63804;53.120;8.764;2023-04-06T07:55:24;14.20;;;7.65;;
54919;SDS011;63804;53.120;8.764;2023-04-06T07:57:50;13.40;;;8.00;;
54919;SDS011;63804;53.120;8.764;2023-04-06T08:00:16;13.00;;;8.95;;
54919;SDS011;63804;53.120;8.764;2023-04-06T08:02:42;14.50;;;8.20;;
54919;SDS011;63804;53.120;8.764;2023-04-06T08:05:08;13.23;;;8.10;;
54919;SDS011;63804;53.120;8.764;2023-04-06T08:07:34;13.50;;;8.25;;
54919;SDS011;63804;53.120;8.764;2023-04-06T08:10:00;13.02;;;7.40;;
54919;SDS011;63804;53.120;8.764;2023-04-06T08:12:26;15.43;;;8.25;;
54919;SDS011;63804;53.120;8.764;2023-04-06T08:14:52;16.83;;;7.85;;
54919;SDS011;63804;53.120;8.764;2023-04-06T08:17:17;13.32;;;8.10;;
54919;SDS011;63804;53.120;8.764;2023-04-06T08:19:43;14.90;;;8.45;;
54919;SDS011;63804;53.120;8.764;2023-04-06T08:22:09;12.55;;;7.70;;
54919;SDS011;63804;53.120;8.764;2023-04-06T08:24:36;12.20;;;7.65;;
54919;SDS011;63804;53.120;8.764;2023-04-06T08:27:01;12.93;;;8.05;;
54919;SDS011;63804;53.120;8.764;2023-04-06T08:29:28;11.98;;;7.55;;
54919;SDS011;63804;53.120;8.764;2023-04-06T08:31:53;15.38;;;7.85;;
54919;SDS011;63804;53.120;8.764;2023-04-06T08:34:20;12.57;;;7.47;;
54919;SDS011;63804;53.120;8.764;2023-04-06T08:36:46;16.90;;;8.18;;
54919;SDS011;63804;53.120;8.764;2023-04-06T08:39:12;12.82;;;7.50;;
54919;SDS011;63804;53.120;8.764;2023-04-06T08:41:41;13.60;;;8.15;;
54919;SDS011;63804;53.120;8.764;2023-04-06T08:44:07;12.57;;;7.30;;
54919;SDS011;63804;53.120;8.764;2023-04-06T08:46:32;13.40;;;7.70;;
54919;SDS011;63804;53.120;8.764;2023-04-06T08:48:59;14.65;;;7.53;;
54919;SDS011;63804;53.120;8.764;2023-04-06T08:51:27;13.15;;;7.60;;
54919;SDS011;63804;53.120;8.764;2023-04-06T08:53:54;11.63;;;7.18;;
54919;SDS011;63804;53.120;8.764;2023-04-06T08:56:21;12.57;;;7.55;;
54919;SDS011;63804;53.120;8.764;2023-04-06T08:58:48;10.68;;;7.38;;
54919;SDS011;63804;53.120;8.764;2023-04-06T09:01:16;13.98;;;7.75;;
54919;SDS011;63804;53.120;8.764;2023-04-06T09:03:43;14.43;;;7.00;;
54919;SDS011;63804;53.120;8.764;2023-04-06T09:06:10;11.95;;;7.32;;
54919;SDS011;63804;53.120;8.764;2023-04-06T09:08:38;13.50;;;7.80;;
54919;SDS011;63804;53.120;8.764;2023-04-06T09:11:05;13.07;;;7.43;;
54919;SDS011;63804;53.120;8.764;2023-04-06T09:13:43;14.93;;;8.50;;
54919;SDS011;63804;53.120;8.764;2023-04-06T09:16:10;13.68;;;7.70;;
54919;SDS011;63804;53.120;8.764;2023-04-06T09:18:39;12.63;;;7.95;;
54919;SDS011;63804;53.120;8.764;2023-04-06T09:21:05;13.32;;;7.90;;
54919;SDS011;63804;53.120;8.764;2023-04-06T09:23:33;12.30;;;7.50;;
54919;SDS011;63804;53.120;8.764;2023-04-06T09:26:05;12.40;;;8.00;;
54919;SDS011;63804;53.120;8.764;2023-04-06T09:31:15;15.63;;;7.72;;
54919;SDS011;63804;53.120;8.764;2023-04-06T09:33:45;13.07;;;7.60;;
54919;SDS011;63804;53.120;8.764;2023-04-06T09:36:11;12.90;;;7.35;;
54919;SDS011;63804;53.120;8.764;2023-04-06T09:38:53;13.65;;;8.23;;
54919;SDS011;63804;53.120;8.764;2023-04-06T09:41:24;13.48;;;7.93;;
54919;SDS011;63804;53.120;8.764;2023-04-06T09:43:52;15.15;;;8.07;;
54919;SDS011;63804;53.120;8.764;2023-04-06T09:46:26;14.65;;;9.10;;
54919;SDS011;63804;53.120;8.764;2023-04-06T09:48:53;12.20;;;7.50;;
54919;SDS011;63804;53.120;8.764;2023-04-06T09:51:19;14.50;;;8.75;;
54919;SDS011;63804;53.120;8.764;2023-04-06T09:53:47;14.23;;;8.23;;
54919;SDS011;63804;53.120;8.764;2023-04-06T09:56:17;15.27;;;8.40;;
54919;SDS011;63804;53.120;8.764;2023-04-06T09:58:49;15.27;;;8.48;;
54919;SDS011;63804;53.120;8.764;2023-04-06T10:01:18;14.45;;;8.45;;
54919;SDS011;63804;53.120;8.764;2023-04-06T10:03:54;14.75;;;8.70;;
54919;SDS011;63804;53.120;8.764;2023-04-06T10:06:25;15.93;;;8.35;;
54919;SDS011;63804;53.120;8.764;2023-04-06T10:08:54;12.85;;;8.45;;
54919;SDS011;63804;53.120;8.764;2023-04-06T10:11:21;13.63;;;8.63;;
54919;SDS011;63804;53.120;8.764;2023-04-06T10:13:47;14.02;;;9.23;;
54919;SDS011;63804;53.120;8.764;2023-04-06T10:16:15;14.98;;;8.98;;
54919;SDS011;63804;53.120;8.764;2023-04-06T10:18:45;14.82;;;8.68;;
54919;SDS011;63804;53.120;8.764;2023-04-06T10:21:18;15.98;;;8.95;;
54919;SDS011;63804;53.120;8.764;2023-04-06T10:26:22;14.98;;;8.82;;
54919;SDS011;63804;53.120;8.764;2023-04-06T10:28:48;15.95;;;8.73;;
54919;SDS011;63804;53.120;8.764;2023-04-06T10:31:15;15.85;;;9.60;;
54919;SDS011;63804;53.120;8.764;2023-04-06T10:33:55;19.65;;;9.38;;
54919;SDS011;63804;53.120;8.764;2023-04-06T10:36:28;13.70;;;8.80;;
54919;SDS011;63804;53.120;8.764;2023-04-06T10:38:59;14.82;;;8.75;;
54919;SDS011;63804;53.120;8.764;2023-04-06T10:41:40;16.15;;;9.02;;
54919;SDS011;63804;53.120;8.764;2023-04-06T10:44:07;16.42;;;9.65;;
54919;SDS011;63804;53.120;8.764;2023-04-06T10:46:42;15.80;;;9.80;;
54919;SDS011;63804;53.120;8.764;2023-04-06T10:49:17;16.40;;;9.73;;
54919;SDS011;63804;53.120;8.764;2023-04-06T10:51:43;14.32;;;9.68;;
54919;SDS011;63804;53.120;8.764;2023-04-06T10:54:09;17.90;;;10.30;;
54919;SDS011;63804;53.120;8.764;2023-04-06T10:56:36;15.85;;;9.82;;
54919;SDS011;63804;53.120;8.764;2023-04-06T10:59:04;16.00;;;10.27;;
54919;SDS011;63804;53.120;8.764;2023-04-06T11:01:31;18.60;;;10.57;;
54919;SDS011;63804;53.120;8.764;2023-04-06T11:04:03;20.13;;;10.23;;
54919;SDS011;63804;53.120;8.764;2023-04-06T11:06:29;16.05;;;9.73;;
54919;SDS011;63804;53.120;8.764;2023-04-06T11:08:56;15.70;;;9.57;;
54919;SDS011;63804;53.120;8.764;2023-04-06T11:11:23;14.80;;;9.70;;
54919;SDS011;63804;53.120;8.764;2023-04-06T11:13:52;15.05;;;9.85;;
54919;SDS011;63804;53.120;8.764;2023-04-06T11:16:20;15.88;;;9.90;;
54919;SDS011;63804;53.120;8.764;2023-04-06T11:18:49;19.15;;;9.43;;
54919;SDS011;63804;53.120;8.764;2023-04-06T11:21:38;13.90;;;9.00;;
54919;SDS011;63804;53.120;8.764;2023-04-06T11:24:20;15.77;;;9.98;;
54919;SDS011;63804;53.120;8.764;2023-04-06T11:26:50;19.98;;;9.65;;
54919;SDS011;63804;53.120;8.764;2023-04-06T11:29:18;16.25;;;10.05;;
54919;SDS011;63804;53.120;8.764;2023-04-06T11:31:49;17.63;;;10.27;;
54919;SDS011;63804;53.120;8.764;2023-04-06T11:34:22;14.88;;;9.27;;
54919;SDS011;63804;53.120;8.764;2023-04-06T11:36:56;15.30;;;9.45;;
54919;SDS011;63804;53.120;8.764;2023-04-06T11:39:28;17.45;;;9.82;;
54919;SDS011;63804;53.120;8.764;2023-04-06T11:41:57;17.52;;;9.95;;
54919;SDS011;63804;53.120;8.764;2023-04-06T11:44:34;16.42;;;10.95;;
54919;SDS011;63804;53.120;8.764;2023-04-06T11:47:07;19.05;;;10.68;;
54919;SDS011;63804;53.120;8.764;2023-04-06T11:49:38;20.83;;;9.88;;
54919;SDS011;63804;53.120;8.764;2023-04-06T11:52:16;22.00;;;10.20;;
54919;SDS011;63804;53.120;8.764;2023-04-06T11:54:53;15.98;;;10.75;;
54919;SDS011;63804;53.120;8.764;2023-04-06T11:57:20;17.05;;;10.18;;
54919;SDS011;63804;53.120;8.764;2023-04-06T11:59:48;17.83;;;9.88;;
54919;SDS011;63804;53.120;8.764;2023-04-06T12:02:13;15.10;;;9.55;;
54919;SDS011;63804;53.120;8.764;2023-04-06T12:04:39;16.13;;;9.50;;
54919;SDS011;63804;53.120;8.764;2023-04-06T12:07:04;16.35;;;9.93;;
54919;SDS011;63804;53.120;8.764;2023-04-06T12:09:30;14.70;;;9.50;;
54919;SDS011;63804;53.120;8.764;2023-04-06T12:11:57;15.50;;;9.52;;
54919;SDS011;63804;53.120;8.764;2023-04-06T12:14:23;16.80;;;9.75;;
54919;SDS011;63804;53.120;8.764;2023-04-06T12:16:51;15.63;;;9.20;;
54919;SDS011;63804;53.120;8.764;2023-04-06T12:19:26;15.50;;;9.40;;
54919;SDS011;63804;53.120;8.764;2023-04-06T12:21:54;28.88;;;10.02;;
54919;SDS011;63804;53.120;8.764;2023-04-06T12:24:21;15.75;;;9.77;;
54919;SDS011;63804;53.120;8.764;2023-04-06T12:26:47;17.77;;;9.73;;
54919;SDS011;63804;53.120;8.764;2023-04-06T12:29:13;17.45;;;10.50;;
54919;SDS011;63804;53.120;8.764;2023-04-06T12:31:39;16.38;;;9.57;;
54919;SDS011;63804;53.120;8.764;2023-04-06T12:34:18;18.85;;;9.65;;
54919;SDS011;63804;53.120;8.764;2023-04-06T12:36:44;16.73;;;9.82;;
54919;SDS011;63804;53.120;8.764;2023-04-06T12:39:09;15.20;;;9.60;;
54919;SDS011;63804;53.120;8.764;2023-04-06T12:41:36;16.85;;;9.90;;
54919;SDS011;63804;53.120;8.764;2023-04-06T12:44:04;16.15;;;8.90;;
54919;SDS011;63804;53.120;8.764;2023-04-06T12:46:30;16.52;;;9.77;;
54919;SDS011;63804;53.120;8.764;2023-04-06T12:48:55;17.25;;;9.57;;
54919;SDS011;63804;53.120;8.764;2023-04-06T12:51:22;14.10;;;9.00;;
54919;SDS011;63804;53.120;8.764;2023-04-06T12:53:48;15.77;;;9.27;;
54919;SDS011;63804;53.120;8.764;2023-04-06T12:56:16;14.32;;;8.93;;
54919;SDS011;63804;53.120;8.764;2023-04-06T12:58:42;14.40;;;8.85;;
54919;SDS011;63804;53.120;8.764;2023-04-06T13:01:09;15.73;;;9.45;;
54919;SDS011;63804;53.120;8.764;2023-04-06T13:03:36;14.38;;;9.27;;
54919;SDS011;63804;53.120;8.764;2023-04-06T13:06:02;16.55;;;9.77;;
54919;SDS011;63804;53.120;8.764;2023-04-06T13:08:28;19.88;;;10.85;;
54919;SDS011;63804;53.120;8.764;2023-04-06T13:10:56;17.15;;;9.57;;
54919;SDS011;63804;53.120;8.764;2023-04-06T13:13:23;14.88;;;8.93;;
54919;SDS011;63804;53.120;8.764;2023-04-06T13:15:53;15.80;;;9.57;;
54919;SDS011;63804;53.120;8.764;2023-04-06T13:18:20;15.10;;;9.32;;
54919;SDS011;63804;53.120;8.764;2023-04-06T13:20:46;15.18;;;8.80;;
54919;SDS011;63804;53.120;8.764;2023-04-06T13:23:15;15.82;;;9.30;;
54919;SDS011;63804;53.120;8.764;2023-04-06T13:25:44;14.80;;;8.95;;
54919;SDS011;63804;53.120;8.764;2023-04-06T13:28:10;14.18;;;8.55;;
54919;SDS011;63804;53.120;8.764;2023-04-06T13:30:35;14.38;;;8.90;;
54919;SDS011;63804;53.120;8.764;2023-04-06T13:33:01;15.57;;;8.95;;
54919;SDS011;63804;53.120;8.764;2023-04-06T13:35:27;17.25;;;10.50;;
54919;SDS011;63804;53.120;8.764;2023-04-06T13:37:53;13.90;;;9.25;;
54919;SDS011;63804;53.120;8.764;2023-04-06T13:40:18;18.88;;;10.00;;
54919;SDS011;63804;53.120;8.764;2023-04-06T13:42:44;16.35;;;9.73;;
54919;SDS011;63804;53.120;8.764;2023-04-06T13:45:11;15.90;;;9.45;;
54919;SDS011;63804;53.120;8.764;2023-04-06T13:47:37;14.77;;;9.60;;
54919;SDS011;63804;53.120;8.764;2023-04-06T13:50:03;15.48;;;8.88;;
54919;SDS011;63804;53.120;8.764;2023-04-06T13:52:29;15.65;;;9.10;;
54919;SDS011;63804;53.120;8.764;2023-04-06T13:54:57;14.40;;;8.82;;
54919;SDS011;63804;53.120;8.764;2023-04-06T13:57:30;15.57;;;9.38;;
54919;SDS011;63804;53.120;8.764;2023-04-06T13:59:56;17.80;;;9.52;;
54919;SDS011;63804;53.120;8.764;2023-04-06T14:02:21;16.52;;;9.60;;
54919;SDS011;63804;53.120;8.764;2023-04-06T14:04:52;17.00;;;10.45;;
54919;SDS011;63804;53.120;8.764;2023-04-06T14:07:20;14.25;;;9.38;;
54919;SDS011;63804;53.120;8.764;2023-04-06T14:09:47;14.70;;;9.77;;
54919;SDS011;63804;53.120;8.764;2023-04-06T14:12:12;15.18;;;9.68;;
54919;SDS011;63804;53.120;8.764;2023-04-06T14:14:38;16.75;;;9.93;;
54919;SDS011;63804;53.120;8.764;2023-04-06T14:17:04;16.90;;;10.57;;
54919;SDS011;63804;53.120;8.764;2023-04-06T14:19:32;15.60;;;10.30;;
54919;SDS011;63804;53.120;8.764;2023-04-06T14:21:57;21.00;;;10.57;;
54919;SDS011;63804;53.120;8.764;2023-04-06T14:24:26;18.88;;;10.80;;
54919;SDS011;63804;53.120;8.764;2023-04-06T14:26:51;17.33;;;10.18;;
54919;SDS011;63804;53.120;8.764;2023-04-06T14:29:17;16.35;;;10.02;;
54919;SDS011;63804;53.120;8.764;2023-04-06T14:31:44;15.68;;;9.82;;